Garrison, ND

9:25 AM CST on January 21, 2017 (GMT -0600)
Downtown Garrison, ND | | Change Station
Active Advisory: Dense Fog Advisory Active Notice: Public Information Statement

Elev 1929 ft 47.65 °N, 101.41 °W | Updated 22 seconds ago

Overcast
Overcast
21.9 °F
Feels Like 22 °F
N
0.0
Wind Variable Wind from NNE

Today
High -- | Low -- °F
--% Chance of Precip.
Yesterday
High -- | Low -- °F
Precip. -- in
Pressure 29.39 in
Visibility 1.5 miles
Clouds Overcast 1000 ft
Windchill 22 °F
Dew Point 21 °F
Humidity 98%
Rainfall 0.00 in
Snow Depth Not available.
8:24 AM 5:30 PM
Waning Crescent, 34% visible
METAR KMOT 211454Z 20003KT 1 1/2SM BR OVC010 M02/M03 A2932 RMK AO2 SLP950 T10221033 51008
Pressure 29.39 in
Visibility 1.5 miles
Clouds Overcast 1000 ft
Windchill 22 °F
Dew Point 21 °F
Humidity 98%
Rainfall 0.00 in
Snow Depth Not available.
8:24 AM 5:30 PM
Waning Crescent, 34% visible
METAR KMOT 211454Z 20003KT 1 1/2SM BR OVC010 M02/M03 A2932 RMK AO2 SLP950 T10221033 51008

Get Your Daily Forecast Email!

Thanks for signing up!

Be on the lookout for a verification email in your inbox.

You'll start receiving the daily forecast at 8 AM.

×

10-Day Weather Forecast

Almanac

Astronomy

Jan. 21, 2017 Rise Set
Actual Time
Civil Twilight
Nautical Twilight
Astronomical Twilight
Moon
Length of Visible Light
Length of Day
Tomorrow will be .
, % of the Moon is Illuminated

Today's Extremes

State Highs State Lows

Community

WunderPhotos

Upload Photos

1,962,540 photos uploaded!

WunderBlog® & News

Nearby

Air Quality

  Air Quality AQ Index Pollutant
Not available.

Snow Depth

Station Depth Elevation

Earthquake Activity

City Distance Mag. Time & Date
Minimum magnitude displayed is 2.5.

Coastal Water Temperatures

Place Temperature

Stations

Nearby Weather Stations

Station Location Temp. Windchill Dew Point Humidity Wind Precip. Elev Updated Type
                   

Watches & Warnings

Dense Fog Advisory
Issued: 6:31 AM CST Jan. 21, 2017 – National Weather Service

... Dense fog advisory remains in effect until noon CST today...

* visibility... one quarter mile or less.

* Impacts... driving will be difficult. Patchy freezing drizzle
is also possible which may make roads and sidewalks slick.

Precautionary/preparedness actions...

A dense fog advisory means visibilities will frequently be
reduced to less than one quarter mile. If driving... slow down...
use your headlights... and leave plenty of distance ahead of you.


Waa